CYYF

Penticton Airport

Penticton, , Canada
TAF CYYF 210639Z 2107/2119 36007KT P6SM FEW100 BECMG 2117/2119 36012KT RMK NXT FCST BY 211300Z
Issued Valid From Valid To
Jul-21 @ 06:39 UTC
(3 hours ago)
Jul-21 @ 07:00 UTC
(3 hours ago)
Jul-21 @ 19:00 UTC
(in 9 hours)
Jul-21 @ 07:00 to Jul-21 @ 17:00
TAF CYYF 210639Z 2107/2119 36007KT P6SM FEW100
Wind Visibility Clouds
360° at 7 knots Greater than 6 miles
  • Few at 10,000' AGL
Becoming Jul-21 @ 17:00 to Jul-21 @ 19:00
BECMG 2117/2119 36012KT RMK NXT FCST BY 211300Z
Wind Visibility Clouds
360° at 12 knots Greater than 6 miles
  • Few at 10,000' AGL
TAF CYYF 210639Z 2107/2119 36007KT P6SM FEW100 BECMG 2117/2119 36012KT RMK NXT FCST BY 211300Z
Issued Jul-21 @ 06:39 UTC
(3 hours ago)
Valid From Jul-21 @ 07:00 UTC
(3 hours ago)
Valid To Jul-21 @ 19:00 UTC
(in 9 hours)
Jul-21 @ 07:00 - Jul-21 @ 17:00
Wind Visibility
360° at 7 knots Greater than 6 miles
Clouds
  • Few at 10,000' AGL
Becoming Jul-21 @ 17:00 - Jul-21 @ 19:00
Wind Visibility
360° at 12 knots Greater than 6 miles
Clouds
  • Few at 10,000' AGL